createdAt,value
2017-08-27T00:00:18.192Z,71.99
2017-08-27T00:02:45.694Z,72.33
2017-08-27T00:05:13.156Z,72.45
2017-08-27T00:07:40.750Z,72.69
2017-08-27T00:10:08.213Z,72.87
2017-08-27T00:12:35.692Z,72.58
2017-08-27T00:15:03.197Z,72.11
2017-08-27T00:17:31.242Z,72.25
2017-08-27T00:19:58.824Z,72.41
2017-08-27T00:22:26.345Z,72.74
2017-08-27T00:24:53.851Z,72.74
2017-08-27T00:27:21.962Z,72.62
2017-08-27T00:29:49.566Z,72.94
2017-08-27T00:32:17.076Z,73.25
2017-08-27T00:34:44.568Z,73.42
2017-08-27T00:37:12.057Z,73.52
2017-08-27T00:39:39.555Z,73.34
2017-08-27T00:42:07.044Z,73.00
2017-08-27T00:44:34.830Z,72.96
2017-08-27T00:47:02.399Z,72.95
2017-08-27T00:49:35.050Z,72.78
2017-08-27T00:52:02.550Z,75.80
2017-08-27T00:54:30.026Z,73.19
2017-08-27T00:57:08.269Z,68.93
2017-08-27T00:59:40.642Z,66.63
2017-08-27T01:02:08.232Z,66.00
2017-08-27T01:04:35.699Z,64.88
2017-08-27T01:07:03.367Z,64.03
2017-08-27T01:09:30.943Z,63.40
2017-08-27T01:11:59.399Z,62.97
2017-08-27T01:14:26.919Z,62.81
2017-08-27T01:16:54.393Z,62.62
2017-08-27T01:19:28.952Z,62.31
2017-08-27T01:22:04.785Z,61.91
2017-08-27T01:24:44.682Z,61.79
2017-08-27T01:27:18.997Z,61.79
2017-08-27T01:29:53.229Z,61.55
2017-08-27T01:32:28.598Z,61.87
2017-08-27T01:34:57.478Z,61.75
2017-08-27T01:37:36.253Z,61.59
2017-08-27T01:40:03.849Z,61.58
2017-08-27T01:42:31.358Z,61.46
2017-08-27T01:45:03.619Z,61.18
2017-08-27T01:47:39.974Z,64.09
2017-08-27T01:50:11.068Z,67.30
2017-08-27T01:52:41.028Z,68.59
2017-08-27T01:55:09.203Z,70.23
2017-08-27T01:57:40.281Z,70.89
2017-08-27T02:00:07.772Z,71.09
2017-08-27T02:02:35.292Z,70.76
2017-08-27T02:05:02.783Z,70.89
2017-08-27T02:07:33.559Z,71.42
2017-08-27T02:10:02.786Z,71.52
2017-08-27T02:12:30.241Z,71.30
2017-08-27T02:15:19.595Z,71.21
2017-08-27T02:20:43.783Z,71.44
2017-08-27T02:23:11.293Z,71.53
2017-08-27T02:25:38.798Z,71.47
2017-08-27T02:28:06.270Z,71.97
2017-08-27T02:30:33.767Z,72.16
2017-08-27T02:33:01.246Z,72.14
2017-08-27T02:35:28.750Z,72.13
2017-08-27T02:37:56.208Z,72.73
2017-08-27T02:40:23.677Z,72.41
2017-08-27T02:42:51.191Z,72.38
2017-08-27T02:45:18.692Z,72.63
2017-08-27T02:47:46.192Z,73.11
2017-08-27T02:52:40.437Z,73.46
2017-08-27T02:55:07.912Z,73.18
2017-08-27T02:57:35.402Z,72.29
2017-08-27T03:00:02.896Z,72.77
2017-08-27T03:02:30.371Z,73.13
2017-08-27T03:04:57.861Z,72.84
2017-08-27T03:07:25.368Z,72.41
2017-08-27T03:09:52.863Z,72.24
2017-08-27T03:12:20.328Z,72.63
2017-08-27T03:14:47.830Z,72.65
2017-08-27T03:17:15.314Z,72.67
2017-08-27T03:19:42.823Z,73.63
2017-08-27T03:22:10.808Z,74.05
2017-08-27T03:24:38.292Z,73.62
2017-08-27T03:27:05.811Z,73.47
2017-08-27T03:29:33.279Z,73.53
2017-08-27T03:32:00.800Z,73.55
2017-08-27T03:34:28.298Z,73.33
2017-08-27T03:36:55.809Z,73.20
2017-08-27T03:39:23.275Z,73.18
2017-08-27T03:41:50.733Z,73.06
2017-08-27T03:44:18.253Z,73.20
2017-08-27T03:46:46.327Z,73.53
2017-08-27T03:49:13.819Z,74.07
2017-08-27T03:51:41.292Z,74.10
2017-08-27T03:54:08.791Z,73.62
2017-08-27T03:56:36.278Z,73.42
2017-08-27T03:59:03.773Z,73.56
2017-08-27T04:01:31.278Z,73.54
2017-08-27T04:03:58.763Z,73.58
2017-08-27T04:06:26.304Z,73.73
2017-08-27T04:08:53.803Z,74.28
2017-08-27T04:11:22.278Z,74.65
2017-08-27T04:13:49.769Z,74.59
2017-08-27T04:16:17.234Z,74.20
2017-08-27T04:18:44.749Z,74.16
2017-08-27T04:21:12.204Z,74.84
2017-08-27T04:23:39.828Z,75.00
2017-08-27T04:26:07.294Z,74.86
2017-08-27T04:28:34.764Z,74.34
2017-08-27T04:31:02.259Z,73.58
2017-08-27T04:33:29.728Z,73.19
2017-08-27T04:35:57.248Z,73.50
2017-08-27T04:38:24.718Z,74.45
2017-08-27T04:40:52.266Z,74.52
2017-08-27T04:43:19.729Z,74.03
2017-08-27T04:45:47.223Z,73.80
2017-08-27T04:48:14.716Z,74.01
2017-08-27T04:50:42.178Z,74.80
2017-08-27T04:53:09.677Z,75.49
2017-08-27T04:55:37.144Z,75.07
2017-08-27T04:58:04.625Z,74.73
2017-08-27T05:00:32.077Z,74.71
2017-08-27T05:02:59.682Z,75.67
2017-08-27T05:05:27.191Z,75.17
2017-08-27T05:07:54.682Z,74.60
2017-08-27T05:10:23.356Z,74.10
2017-08-27T05:12:50.953Z,73.86
2017-08-27T05:15:18.434Z,73.63
2017-08-27T05:17:45.926Z,73.89
2017-08-27T05:20:13.424Z,73.93
2017-08-27T05:22:40.915Z,73.92
2017-08-27T05:25:08.418Z,74.01
2017-08-27T05:27:35.883Z,73.99
2017-08-27T05:30:03.374Z,73.52
2017-08-27T05:32:30.847Z,73.08
2017-08-27T05:34:58.340Z,73.70
2017-08-27T05:37:25.853Z,73.75
2017-08-27T05:39:54.164Z,74.00
2017-08-27T05:42:21.677Z,73.71
2017-08-27T05:44:49.135Z,73.96
2017-08-27T05:47:16.640Z,74.43
2017-08-27T05:49:44.118Z,74.79
2017-08-27T05:52:12.359Z,74.89
2017-08-27T05:54:39.829Z,74.94
2017-08-27T05:57:08.018Z,74.65
2017-08-27T05:59:35.485Z,74.28
2017-08-27T06:02:03.014Z,74.12
2017-08-27T06:04:30.509Z,74.04
2017-08-27T06:06:57.986Z,74.46
2017-08-27T06:09:25.487Z,74.68
2017-08-27T06:11:53.338Z,74.50
2017-08-27T06:14:20.825Z,74.54
2017-08-27T06:16:48.285Z,74.39
2017-08-27T06:19:15.785Z,73.97
2017-08-27T06:21:43.251Z,73.78
2017-08-27T06:24:10.739Z,73.58
2017-08-27T06:26:38.238Z,73.46
2017-08-27T06:29:05.733Z,73.58
2017-08-27T06:31:33.210Z,74.01
2017-08-27T06:34:00.693Z,73.96
2017-08-27T06:36:28.200Z,74.08
2017-08-27T06:38:55.658Z,74.25
2017-08-27T06:41:23.151Z,74.31
2017-08-27T06:43:50.630Z,74.29
2017-08-27T06:46:18.118Z,74.34
2017-08-27T06:48:45.579Z,74.18
2017-08-27T06:51:13.075Z,73.41
2017-08-27T06:53:40.595Z,73.08
2017-08-27T06:56:08.071Z,73.46
2017-08-27T06:58:35.557Z,74.75
2017-08-27T07:01:03.038Z,75.67
2017-08-27T07:03:30.568Z,76.22
2017-08-27T07:05:58.049Z,75.52
2017-08-27T07:08:25.529Z,74.92
2017-08-27T07:10:53.012Z,74.31
2017-08-27T07:13:20.482Z,73.57
2017-08-27T07:15:47.996Z,73.19
2017-08-27T07:18:15.479Z,72.99
2017-08-27T07:20:42.988Z,72.38
2017-08-27T07:23:10.452Z,71.77
2017-08-27T07:25:37.988Z,71.29
2017-08-27T07:28:05.460Z,71.12
2017-08-27T07:30:32.962Z,71.00
2017-08-27T07:33:00.459Z,70.88
2017-08-27T07:35:27.963Z,70.89
2017-08-27T07:37:55.434Z,70.75
2017-08-27T07:40:22.919Z,70.69
2017-08-27T07:42:50.418Z,70.71
2017-08-27T07:45:17.891Z,70.73
2017-08-27T07:47:45.429Z,70.52
2017-08-27T07:50:12.906Z,70.34
2017-08-27T07:52:40.404Z,70.08
2017-08-27T07:55:07.901Z,69.94
2017-08-27T07:57:35.416Z,69.82
2017-08-27T08:00:03.593Z,69.45
2017-08-27T08:02:32.038Z,69.00
2017-08-27T08:04:59.502Z,68.26
2017-08-27T08:07:27.151Z,67.90
2017-08-27T08:09:54.621Z,66.89
2017-08-27T08:12:22.103Z,67.06
2017-08-27T08:14:49.603Z,66.33
2017-08-27T08:17:17.061Z,66.58
2017-08-27T08:19:44.581Z,66.41
2017-08-27T08:22:12.062Z,66.17
2017-08-27T08:24:39.535Z,66.01
2017-08-27T08:27:07.756Z,66.19
2017-08-27T08:29:35.254Z,65.77
2017-08-27T08:32:02.782Z,65.95
2017-08-27T08:34:30.285Z,65.72
2017-08-27T08:36:58.696Z,65.09
2017-08-27T08:39:26.186Z,65.02
2017-08-27T08:41:53.673Z,64.78
2017-08-27T08:44:21.131Z,65.01
2017-08-27T08:46:50.581Z,64.61
2017-08-27T08:49:18.192Z,64.69
2017-08-27T08:51:45.690Z,64.28
2017-08-27T08:54:13.170Z,64.26
2017-08-27T08:56:40.675Z,64.27
2017-08-27T08:59:08.179Z,63.82
2017-08-27T09:01:35.705Z,63.91
2017-08-27T09:04:03.187Z,64.18
2017-08-27T09:06:30.682Z,64.02
2017-08-27T09:08:58.190Z,63.37
2017-08-27T09:11:25.669Z,63.36
2017-08-27T09:13:53.164Z,63.19
2017-08-27T09:16:20.655Z,63.50
2017-08-27T09:18:48.217Z,63.06
2017-08-27T09:21:15.677Z,62.87
2017-08-27T09:23:43.184Z,62.40
2017-08-27T09:26:10.686Z,61.76
2017-08-27T09:28:38.185Z,61.58
2017-08-27T09:31:05.711Z,61.37
2017-08-27T09:33:33.201Z,61.54
2017-08-27T09:36:00.689Z,61.72
2017-08-27T09:38:28.149Z,62.01
2017-08-27T09:40:55.644Z,61.86
2017-08-27T09:43:23.178Z,61.70
2017-08-27T09:45:50.682Z,61.54
2017-08-27T09:48:18.171Z,60.71
2017-08-27T09:50:45.670Z,60.27
2017-08-27T09:53:13.165Z,60.06
2017-08-27T09:55:40.650Z,59.72
2017-08-27T09:58:08.143Z,59.53
2017-08-27T10:00:35.647Z,59.05
2017-08-27T10:03:03.162Z,58.62
2017-08-27T10:05:31.349Z,58.78
2017-08-27T10:07:58.833Z,58.59
2017-08-27T10:10:26.354Z,57.76
2017-08-27T10:12:53.864Z,57.48
2017-08-27T10:15:21.357Z,57.29
2017-08-27T10:17:48.839Z,57.15
2017-08-27T10:20:16.349Z,57.13
2017-08-27T10:22:43.811Z,56.95
2017-08-27T10:25:11.395Z,56.71
2017-08-27T10:27:38.841Z,55.23
2017-08-27T10:30:06.331Z,54.80
2017-08-27T10:32:33.818Z,54.26
2017-08-27T10:35:01.333Z,53.89
2017-08-27T10:37:29.525Z,54.03
2017-08-27T10:39:57.027Z,53.16
2017-08-27T10:42:25.249Z,53.04
2017-08-27T10:44:52.800Z,53.33
2017-08-27T10:47:20.295Z,53.88
2017-08-27T10:49:47.804Z,53.69
2017-08-27T10:52:15.302Z,52.64
2017-08-27T10:54:42.815Z,51.49
2017-08-27T10:57:11.231Z,51.24
2017-08-27T10:59:38.884Z,51.48
2017-08-27T11:02:06.391Z,50.82
2017-08-27T11:04:33.869Z,50.61
2017-08-27T11:07:01.387Z,51.90
2017-08-27T11:09:28.870Z,52.45
2017-08-27T11:11:56.368Z,53.13
2017-08-27T11:14:23.830Z,52.72
2017-08-27T11:16:51.396Z,52.57
2017-08-27T11:19:18.862Z,50.88
2017-08-27T11:21:46.327Z,50.51
2017-08-27T11:24:13.858Z,49.07
2017-08-27T11:26:41.424Z,49.18
2017-08-27T11:29:08.934Z,49.36
2017-08-27T11:31:36.429Z,49.68
2017-08-27T11:34:04.639Z,50.21
2017-08-27T11:36:32.152Z,49.91
2017-08-27T11:38:59.642Z,49.50
2017-08-27T11:41:27.536Z,48.85
2017-08-27T11:43:55.039Z,48.86
2017-08-27T11:46:22.562Z,48.53
2017-08-27T11:48:50.415Z,48.58
2017-08-27T11:51:17.925Z,48.61
2017-08-27T11:53:45.406Z,48.76
2017-08-27T11:56:12.944Z,48.11
2017-08-27T11:58:40.426Z,47.76
2017-08-27T12:01:07.958Z,46.69
2017-08-27T12:03:35.433Z,46.97
2017-08-27T12:06:02.925Z,47.63
2017-08-27T12:08:30.410Z,46.99
2017-08-27T12:10:57.883Z,46.38
2017-08-27T12:13:25.375Z,46.54
2017-08-27T12:15:52.859Z,46.04
2017-08-27T12:18:20.350Z,46.52
2017-08-27T12:20:47.841Z,46.48
2017-08-27T12:23:15.366Z,46.15
2017-08-27T12:25:42.892Z,46.75
2017-08-27T12:28:11.226Z,47.75
2017-08-27T12:30:38.781Z,47.91
2017-08-27T12:33:06.252Z,47.29
2017-08-27T12:35:33.789Z,47.19
2017-08-27T12:38:01.259Z,47.53
2017-08-27T12:40:28.782Z,47.22
2017-08-27T12:42:56.247Z,47.11
2017-08-27T12:45:23.788Z,46.80
2017-08-27T12:47:51.295Z,46.69
2017-08-27T12:50:18.807Z,45.70
2017-08-27T12:52:46.307Z,45.17
2017-08-27T12:55:13.786Z,44.98
2017-08-27T12:57:42.164Z,44.22
2017-08-27T13:00:11.070Z,42.94
2017-08-27T13:02:38.759Z,44.13
2017-08-27T13:05:06.428Z,44.05
2017-08-27T13:07:34.056Z,43.85
2017-08-27T13:10:01.536Z,43.72
2017-08-27T13:12:29.020Z,43.16
2017-08-27T13:14:56.519Z,43.10
2017-08-27T13:17:24.027Z,42.92
2017-08-27T13:19:51.543Z,42.16
2017-08-27T13:22:19.041Z,42.79
2017-08-27T13:24:46.543Z,43.07
2017-08-27T13:27:14.014Z,43.34
2017-08-27T13:29:41.526Z,43.36
2017-08-27T13:32:08.989Z,42.43
2017-08-27T13:34:36.476Z,42.50
2017-08-27T13:37:03.947Z,41.35
2017-08-27T13:39:31.438Z,40.77
2017-08-27T13:41:58.919Z,40.63
2017-08-27T13:44:26.459Z,40.38
2017-08-27T13:46:54.656Z,40.29
2017-08-27T13:49:22.194Z,40.28
2017-08-27T13:51:49.717Z,40.51
2017-08-27T13:54:17.214Z,42.45
2017-08-27T13:56:44.721Z,43.25
2017-08-27T13:59:12.213Z,42.88
2017-08-27T14:01:39.734Z,43.51
2017-08-27T14:04:07.219Z,43.63
2017-08-27T14:06:34.726Z,43.30
2017-08-27T14:09:02.203Z,42.37
2017-08-27T14:11:29.723Z,42.54
2017-08-27T14:13:57.186Z,45.00
2017-08-27T14:16:24.674Z,44.82
2017-08-27T14:18:52.392Z,44.65
2017-08-27T14:21:19.908Z,43.93
2017-08-27T14:23:47.413Z,42.92
2017-08-27T14:26:14.877Z,44.48
2017-08-27T14:28:42.375Z,44.21
2017-08-27T14:31:09.880Z,42.71
2017-08-27T14:33:37.441Z,43.50
2017-08-27T14:36:05.421Z,43.30
2017-08-27T14:38:32.929Z,45.09
2017-08-27T14:41:00.389Z,44.55
2017-08-27T14:43:27.885Z,44.82
2017-08-27T14:45:55.375Z,42.80
2017-08-27T14:48:22.850Z,43.79
2017-08-27T14:50:50.395Z,44.53
2017-08-27T14:53:17.887Z,44.18
2017-08-27T14:55:45.500Z,42.43
2017-08-27T14:58:12.987Z,42.99
2017-08-27T15:00:40.479Z,42.09
2017-08-27T15:03:08.075Z,41.67
2017-08-27T15:05:36.519Z,40.38
2017-08-27T15:08:04.041Z,41.60
2017-08-27T15:10:31.525Z,41.72
2017-08-27T15:12:59.047Z,42.68
2017-08-27T15:15:26.522Z,43.08
2017-08-27T15:17:54.878Z,42.38
2017-08-27T15:20:22.413Z,41.56
2017-08-27T15:22:49.910Z,42.65
2017-08-27T15:25:17.403Z,41.75
2017-08-27T15:27:45.424Z,40.83
2017-08-27T15:30:14.221Z,40.88
2017-08-27T15:32:41.988Z,40.67
2017-08-27T15:35:09.532Z,39.72
2017-08-27T15:37:37.013Z,39.35
2017-08-27T15:40:04.518Z,40.61
2017-08-27T15:42:32.015Z,39.84
2017-08-27T15:44:59.556Z,40.09
2017-08-27T15:47:27.914Z,41.72
2017-08-27T15:49:55.412Z,41.24
2017-08-27T15:52:22.934Z,41.81
2017-08-27T15:54:50.437Z,41.95
2017-08-27T15:57:17.960Z,42.08
2017-08-27T15:59:45.492Z,41.09
2017-08-27T16:02:13.059Z,42.19
2017-08-27T16:04:40.536Z,42.26
2017-08-27T16:07:08.065Z,42.72
2017-08-27T16:09:35.563Z,44.02
2017-08-27T16:12:03.090Z,44.01
2017-08-27T16:14:30.618Z,44.25
2017-08-27T16:16:58.141Z,43.98
2017-08-27T16:19:25.656Z,43.01
2017-08-27T16:21:53.200Z,42.57
2017-08-27T16:24:20.689Z,42.64
2017-08-27T16:26:48.211Z,43.19
2017-08-27T16:29:15.787Z,42.10
2017-08-27T16:31:43.258Z,41.95
2017-08-27T16:34:10.787Z,42.05
2017-08-27T16:36:38.269Z,42.14
2017-08-27T16:39:05.797Z,42.38
2017-08-27T16:41:33.329Z,42.10
2017-08-27T16:44:00.861Z,41.58
2017-08-27T16:46:28.372Z,42.11
2017-08-27T16:48:56.586Z,42.16
2017-08-27T16:51:24.129Z,41.76
2017-08-27T16:53:51.647Z,42.03
2017-08-27T16:56:23.147Z,42.13
2017-08-27T16:58:50.658Z,42.03
2017-08-27T17:01:19.019Z,41.90
2017-08-27T17:03:46.511Z,41.88
2017-08-27T17:06:14.049Z,41.89
2017-08-27T17:08:41.500Z,42.35
2017-08-27T17:11:09.029Z,42.44
2017-08-27T17:13:36.506Z,42.47
2017-08-27T17:16:04.009Z,42.47
2017-08-27T17:18:31.539Z,42.51
2017-08-27T17:20:58.994Z,43.07
2017-08-27T17:23:26.496Z,43.32
2017-08-27T17:25:53.968Z,43.41
2017-08-27T17:28:21.472Z,43.60
2017-08-27T17:30:48.980Z,44.19
2017-08-27T17:33:16.481Z,44.17
2017-08-27T17:35:44.111Z,44.44
2017-08-27T17:38:11.600Z,44.56
2017-08-27T17:40:39.090Z,44.80
2017-08-27T17:43:06.610Z,44.91
2017-08-27T17:45:34.136Z,45.14
2017-08-27T17:48:01.638Z,45.58
2017-08-27T17:50:29.153Z,45.61
2017-08-27T17:52:56.629Z,45.76
2017-08-27T17:55:24.154Z,46.14
2017-08-27T17:57:51.641Z,46.40
2017-08-27T18:00:19.319Z,46.48
2017-08-27T18:02:46.810Z,47.05
2017-08-27T18:05:14.316Z,47.10
2017-08-27T18:07:41.855Z,47.40
2017-08-27T18:10:10.333Z,47.82
2017-08-27T18:12:37.827Z,48.27
2017-08-27T18:15:05.295Z,48.29
2017-08-27T18:17:32.824Z,48.60
2017-08-27T18:20:00.318Z,48.77
2017-08-27T18:22:27.843Z,49.08
2017-08-27T18:24:55.332Z,49.47
2017-08-27T18:27:22.882Z,49.66
2017-08-27T18:29:50.506Z,49.76
2017-08-27T18:32:17.973Z,49.92
2017-08-27T18:34:45.595Z,50.03
2017-08-27T18:37:13.792Z,50.04
2017-08-27T18:39:41.282Z,50.36
2017-08-27T18:42:08.853Z,50.82
2017-08-27T18:44:36.354Z,50.88
2017-08-27T18:47:06.916Z,50.81
2017-08-27T18:49:34.406Z,51.02
2017-08-27T18:52:01.932Z,51.31
2017-08-27T18:54:29.465Z,51.56
2017-08-27T18:56:56.960Z,52.00
2017-08-27T18:59:24.479Z,52.40
2017-08-27T19:01:52.293Z,52.67
2017-08-27T19:04:19.806Z,52.88
2017-08-27T19:06:47.332Z,53.26
2017-08-27T19:09:14.902Z,53.62
2017-08-27T19:11:42.509Z,53.57
2017-08-27T19:14:09.988Z,53.64
2017-08-27T19:16:37.494Z,53.93
2017-08-27T19:19:05.041Z,54.35
2017-08-27T19:21:43.965Z,54.52
2017-08-27T19:24:11.455Z,54.66
2017-08-27T19:26:39.528Z,54.49
2017-08-27T19:29:07.018Z,54.79
2017-08-27T19:31:34.491Z,55.12
2017-08-27T19:34:01.989Z,56.04
2017-08-27T19:36:29.515Z,56.08
2017-08-27T19:38:57.070Z,56.30
2017-08-27T19:41:25.660Z,56.82
2017-08-27T19:43:53.198Z,57.15
2017-08-27T19:46:20.729Z,57.21
2017-08-27T19:48:48.258Z,57.76
2017-08-27T19:51:15.739Z,58.22
2017-08-27T19:53:48.110Z,58.33
2017-08-27T19:56:15.594Z,59.03
2017-08-27T19:58:43.083Z,58.92
2017-08-27T20:01:10.587Z,58.72
2017-08-27T20:03:38.093Z,59.01
2017-08-27T20:06:05.609Z,58.94
2017-08-27T20:08:33.083Z,59.74
2017-08-27T20:11:00.715Z,60.10
2017-08-27T20:13:28.222Z,60.20
2017-08-27T20:15:55.792Z,60.31
2017-08-27T20:18:29.841Z,60.26
2017-08-27T20:20:57.349Z,60.08
2017-08-27T20:23:24.827Z,59.95
2017-08-27T20:25:52.327Z,60.49
2017-08-27T20:28:19.845Z,60.79
2017-08-27T20:30:47.426Z,61.00
2017-08-27T20:33:25.579Z,61.19
2017-08-27T20:35:53.116Z,61.40
2017-08-27T20:38:20.613Z,62.42
2017-08-27T20:40:48.073Z,62.86
2017-08-27T20:43:15.572Z,61.01
2017-08-27T20:45:43.045Z,59.84
2017-08-27T20:48:10.553Z,58.81
2017-08-27T20:50:38.078Z,58.10
2017-08-27T20:53:05.574Z,57.75
2017-08-27T20:55:33.129Z,57.52
2017-08-27T20:58:00.625Z,57.29
2017-08-27T21:00:28.134Z,56.93
2017-08-27T21:02:57.802Z,56.91
2017-08-27T21:05:25.312Z,57.15
2017-08-27T21:07:52.857Z,57.12
2017-08-27T21:10:20.769Z,57.07
2017-08-27T21:12:48.306Z,57.04
2017-08-27T21:15:15.807Z,57.18
2017-08-27T21:17:43.551Z,57.16
2017-08-27T21:20:11.019Z,57.20
2017-08-27T21:22:38.525Z,57.29
2017-08-27T21:25:06.002Z,57.37
2017-08-27T21:27:33.890Z,57.38
2017-08-27T21:30:01.357Z,59.76
2017-08-27T21:32:28.884Z,61.16
2017-08-27T21:34:56.347Z,62.46
2017-08-27T21:37:23.875Z,63.11
2017-08-27T21:39:51.362Z,63.61
2017-08-27T21:42:20.316Z,64.36
2017-08-27T21:44:47.831Z,64.55
2017-08-27T21:47:17.710Z,64.88
2017-08-27T21:49:45.248Z,65.29
2017-08-27T21:52:12.793Z,65.55
2017-08-27T21:54:40.312Z,65.59
2017-08-27T21:57:08.490Z,65.49
2017-08-27T21:59:35.971Z,65.87
2017-08-27T22:02:04.026Z,65.81
2017-08-27T22:04:31.526Z,65.99
2017-08-27T22:06:59.761Z,65.77
2017-08-27T22:09:27.242Z,65.94
2017-08-27T22:11:54.819Z,66.47
2017-08-27T22:14:22.338Z,66.42
2017-08-27T22:16:49.803Z,66.38
2017-08-27T22:19:17.308Z,66.46
2017-08-27T22:21:44.806Z,66.96
2017-08-27T22:24:12.335Z,66.85
2017-08-27T22:26:39.852Z,67.20
2017-08-27T22:29:07.346Z,67.29
2017-08-27T22:31:38.395Z,67.71
2017-08-27T22:34:06.597Z,68.12
2017-08-27T22:36:34.069Z,68.09
2017-08-27T22:39:01.538Z,68.20
2017-08-27T22:41:29.044Z,68.16
2017-08-27T22:44:07.283Z,68.77
2017-08-27T22:46:34.787Z,68.79
2017-08-27T22:49:02.253Z,68.55
2017-08-27T22:51:29.769Z,68.70
2017-08-27T22:53:57.262Z,68.71
2017-08-27T22:56:24.778Z,68.56
2017-08-27T22:58:52.286Z,68.70
2017-08-27T23:01:20.138Z,68.68
2017-08-27T23:03:47.600Z,68.90
2017-08-27T23:06:15.092Z,68.89
2017-08-27T23:08:42.607Z,69.50
2017-08-27T23:11:10.078Z,69.08
2017-08-27T23:13:37.628Z,68.99
2017-08-27T23:16:05.094Z,68.75
2017-08-27T23:18:32.624Z,69.07
2017-08-27T23:21:00.132Z,69.15
2017-08-27T23:23:27.639Z,69.19
2017-08-27T23:25:55.155Z,69.64
2017-08-27T23:28:22.738Z,69.91
2017-08-27T23:30:50.229Z,69.85
2017-08-27T23:33:17.711Z,69.49
2017-08-27T23:35:45.245Z,69.53
2017-08-27T23:38:12.820Z,69.71
2017-08-27T23:40:40.350Z,69.79
2017-08-27T23:43:07.847Z,69.63
2017-08-27T23:45:35.358Z,69.78
2017-08-27T23:48:10.003Z,70.01
2017-08-27T23:50:37.671Z,70.16
2017-08-27T23:53:05.471Z,70.15
2017-08-27T23:55:32.930Z,69.97
2017-08-27T23:58:00.441Z,70.24
